createdAt,value
2023-04-22T00:02:46.007Z,3.74
2023-04-22T00:06:27.578Z,5.33
2023-04-22T00:10:09.164Z,3.74
2023-04-22T00:21:10.966Z,4.53
2023-04-22T00:24:52.696Z,5.99
2023-04-22T00:35:54.398Z,0.00
2023-04-22T00:39:36.184Z,4.50
2023-04-22T00:43:17.898Z,6.28
2023-04-22T00:46:59.696Z,3.37
2023-04-22T00:50:41.368Z,4.86
2023-04-22T00:54:23.176Z,7.12
2023-04-22T00:58:04.936Z,5.49
2023-04-22T01:01:46.666Z,7.10
2023-04-22T01:05:28.359Z,4.48
2023-04-22T01:09:10.065Z,4.50
2023-04-22T01:12:51.699Z,3.83
2023-04-22T01:16:33.410Z,4.85
2023-04-22T01:20:15.126Z,5.65
2023-04-22T01:23:56.865Z,4.63
2023-04-22T01:27:38.537Z,5.65
2023-04-22T01:31:20.195Z,6.50
2023-04-22T01:35:01.885Z,7.95
2023-04-22T01:38:43.750Z,8.12
2023-04-22T01:42:25.469Z,7.26
2023-04-22T01:46:07.471Z,5.19
2023-04-22T01:49:49.194Z,7.12
2023-04-22T01:53:30.941Z,8.65
2023-04-22T01:57:12.667Z,5.45
2023-04-22T02:00:54.290Z,4.95
2023-04-22T02:04:36.050Z,5.46
2023-04-22T02:08:17.697Z,5.53
2023-04-22T02:11:59.458Z,6.30
2023-04-22T02:15:41.387Z,5.76
2023-04-22T02:19:22.965Z,3.83
2023-04-22T02:23:04.630Z,3.85
2023-04-22T02:26:46.292Z,3.09
2023-04-22T02:30:28.000Z,4.47
2023-04-22T02:34:09.873Z,6.57
2023-04-22T02:37:51.501Z,6.59
2023-04-22T02:41:33.206Z,4.35
2023-04-22T02:45:14.876Z,5.31
2023-04-22T02:48:56.601Z,6.15
2023-04-22T02:52:38.316Z,4.60
2023-04-22T02:56:20.118Z,6.20
2023-04-22T03:00:01.781Z,3.13
2023-04-22T03:03:43.602Z,3.19
2023-04-22T03:07:25.018Z,3.38
2023-04-22T03:11:06.688Z,4.25
2023-04-22T03:14:48.351Z,5.01
2023-04-22T03:18:30.042Z,5.17
2023-04-22T03:22:11.708Z,5.93
2023-04-22T03:25:53.485Z,6.80
2023-04-22T03:29:35.335Z,6.34
2023-04-22T03:33:16.982Z,5.03
2023-04-22T03:36:58.738Z,6.09
2023-04-22T03:40:44.441Z,4.76
2023-04-22T03:44:26.150Z,4.33
2023-04-22T03:48:07.941Z,6.72
2023-04-22T03:51:49.426Z,7.51
2023-04-22T03:55:31.071Z,6.24
2023-04-22T03:59:12.717Z,6.50
2023-04-22T04:02:54.708Z,3.15
2023-04-22T04:06:36.043Z,3.42
2023-04-22T04:10:17.797Z,4.18
2023-04-22T04:13:59.433Z,4.85
2023-04-22T04:17:41.128Z,3.31
2023-04-22T04:21:22.715Z,7.20
2023-04-22T04:25:04.351Z,3.35
2023-04-22T04:32:26.193Z,5.46
2023-04-22T04:36:07.794Z,5.08
2023-04-22T04:39:49.364Z,2.09
2023-04-22T04:43:30.989Z,3.44
2023-04-22T04:47:12.682Z,5.78
2023-04-22T04:50:54.378Z,5.22
2023-04-22T04:54:35.995Z,5.04
2023-04-22T04:58:17.593Z,4.01
2023-04-22T05:01:59.323Z,4.50
2023-04-22T05:05:40.926Z,4.74
2023-04-22T05:09:22.598Z,6.71
2023-04-22T05:13:04.591Z,5.35
2023-04-22T05:16:46.094Z,8.04
2023-04-22T05:24:07.742Z,2.09
2023-04-22T05:27:49.451Z,7.40
2023-04-22T05:31:31.149Z,2.57
2023-04-22T05:35:12.726Z,2.86
2023-04-22T05:38:54.325Z,2.38
2023-04-22T05:42:36.031Z,2.98
2023-04-22T05:46:17.711Z,2.71
2023-04-22T05:49:59.205Z,2.48
2023-04-22T05:53:40.846Z,4.88
2023-04-22T05:57:22.448Z,6.47
2023-04-22T06:01:04.145Z,5.79
2023-04-22T06:04:46.159Z,2.71
2023-04-22T06:08:27.345Z,2.84
2023-04-22T06:15:49.037Z,3.51
2023-04-22T06:19:30.676Z,3.23
2023-04-22T06:23:12.221Z,1.70
2023-04-22T06:26:53.814Z,2.89
2023-04-22T06:30:35.396Z,1.96
2023-04-22T06:34:16.990Z,4.66
2023-04-22T06:41:40.861Z,4.02
2023-04-22T06:45:20.349Z,7.34
2023-04-22T06:49:02.013Z,5.73
2023-04-22T06:52:43.887Z,6.43
2023-04-22T06:56:25.549Z,4.92
2023-04-22T07:00:07.265Z,6.72
2023-04-22T07:03:49.035Z,5.25
2023-04-22T07:07:30.642Z,7.31
2023-04-22T07:11:14.364Z,3.31
2023-04-22T07:14:53.968Z,3.72
2023-04-22T07:18:35.615Z,3.52
2023-04-22T07:22:17.186Z,3.74
2023-04-22T07:25:58.818Z,2.52
2023-04-22T07:29:40.615Z,2.70
2023-04-22T07:33:22.117Z,4.97
2023-04-22T07:37:03.768Z,3.42
2023-04-22T07:40:45.378Z,2.72
2023-04-22T07:44:26.981Z,2.63
2023-04-22T07:48:08.621Z,2.92
2023-04-22T07:51:50.231Z,4.53
2023-04-22T07:55:31.885Z,3.74
2023-04-22T07:59:13.548Z,3.91
2023-04-22T08:02:55.390Z,3.56
2023-04-22T08:06:36.757Z,3.49
2023-04-22T08:10:18.392Z,4.21
2023-04-22T08:14:00.019Z,2.40
2023-04-22T08:17:41.653Z,2.84
2023-04-22T08:25:03.290Z,2.48
2023-04-22T08:28:44.893Z,1.90
2023-04-22T08:36:06.641Z,4.17
2023-04-22T08:39:48.210Z,3.40
2023-04-22T08:50:49.959Z,2.77
2023-04-22T09:01:51.846Z,4.07
2023-04-22T09:05:33.435Z,2.61
2023-04-22T09:12:55.229Z,3.44
2023-04-22T09:16:36.947Z,6.64
2023-04-22T09:20:18.763Z,5.04
2023-04-22T09:24:00.443Z,5.17
2023-04-22T09:27:42.223Z,6.01
2023-04-22T09:31:23.972Z,5.39
2023-04-22T09:35:05.653Z,6.00
2023-04-22T09:38:47.522Z,4.59
2023-04-22T09:42:29.332Z,4.42
2023-04-22T09:46:11.251Z,5.85
2023-04-22T09:49:52.954Z,4.18
2023-04-22T09:53:34.886Z,5.95
2023-04-22T09:57:16.800Z,5.35
2023-04-22T10:00:58.754Z,5.97
2023-04-22T10:04:40.678Z,5.50
2023-04-22T10:08:22.550Z,5.89
2023-04-22T10:12:04.370Z,5.24
2023-04-22T10:15:46.281Z,5.25
2023-04-22T10:19:28.018Z,4.29
2023-04-22T10:23:09.928Z,6.01
2023-04-22T10:26:52.003Z,6.09
2023-04-22T10:30:33.675Z,6.84
2023-04-22T10:34:15.677Z,5.79
2023-04-22T10:37:57.512Z,6.82
2023-04-22T10:41:39.376Z,5.85
2023-04-22T10:45:21.348Z,5.91
2023-04-22T10:49:04.163Z,4.35
2023-04-22T10:52:45.046Z,4.75
2023-04-22T10:56:26.736Z,5.07
2023-04-22T11:00:08.511Z,4.47
2023-04-22T11:03:50.308Z,4.69
2023-04-22T11:07:32.093Z,4.98
2023-04-22T11:11:13.886Z,4.01
2023-04-22T11:14:55.766Z,5.61
2023-04-22T11:18:37.641Z,6.03
2023-04-22T11:22:19.349Z,4.51
2023-04-22T11:26:01.212Z,6.66
2023-04-22T11:29:43.130Z,4.57
2023-04-22T11:33:24.928Z,4.37
2023-04-22T11:37:06.833Z,5.05
2023-04-22T11:40:49.134Z,4.17
2023-04-22T11:44:30.452Z,6.25
2023-04-22T11:48:12.237Z,5.74
2023-04-22T11:51:53.969Z,4.32
2023-04-22T11:55:35.802Z,4.47
2023-04-22T11:59:17.680Z,5.35
2023-04-22T12:02:59.646Z,5.44
2023-04-22T12:06:41.398Z,4.50
2023-04-22T12:10:23.220Z,5.14
2023-04-22T12:14:04.952Z,5.35
2023-04-22T12:17:46.838Z,5.44
2023-04-22T12:21:28.686Z,5.33
2023-04-22T12:25:10.522Z,5.59
2023-04-22T12:28:52.208Z,3.76
2023-04-22T12:32:34.154Z,6.17
2023-04-22T12:36:15.988Z,6.07
2023-04-22T12:39:57.862Z,5.70
2023-04-22T12:43:39.684Z,5.51
2023-04-22T12:47:21.613Z,5.16
2023-04-22T12:51:03.454Z,4.81
2023-04-22T12:54:45.327Z,6.35
2023-04-22T12:58:27.101Z,4.32
2023-04-22T13:02:08.999Z,3.98
2023-04-22T13:05:50.720Z,5.35
2023-04-22T13:09:32.667Z,5.15
2023-04-22T13:13:17.987Z,5.42
2023-04-22T13:16:56.441Z,6.29
2023-04-22T13:20:38.321Z,6.18
2023-04-22T13:24:20.124Z,5.13
2023-04-22T13:28:03.080Z,7.03
2023-04-22T13:31:45.008Z,6.89
2023-04-22T13:35:26.899Z,6.86
2023-04-22T13:39:08.712Z,5.03
2023-04-22T13:42:50.641Z,7.29
2023-04-22T13:46:32.485Z,4.80
2023-04-22T13:50:14.406Z,8.52
2023-04-22T13:53:56.295Z,7.03
2023-04-22T13:57:38.297Z,8.38
2023-04-22T14:01:20.225Z,8.42
2023-04-22T14:05:02.183Z,7.88
2023-04-22T14:08:43.899Z,5.26
2023-04-22T14:12:25.604Z,5.37
2023-04-22T14:16:09.266Z,4.49
2023-04-22T14:19:49.028Z,3.35
2023-04-22T14:23:30.713Z,5.49
2023-04-22T14:27:12.733Z,3.22
2023-04-22T14:30:54.371Z,6.38
2023-04-22T14:34:36.149Z,4.45
2023-04-22T14:38:17.888Z,6.39
2023-04-22T14:41:59.692Z,4.81
2023-04-22T14:45:41.487Z,6.09
2023-04-22T14:49:23.296Z,6.16
2023-04-22T14:53:05.149Z,6.46
2023-04-22T14:56:46.860Z,5.28
2023-04-22T15:00:28.588Z,4.11
2023-04-22T15:04:10.508Z,3.91
2023-04-22T15:07:52.122Z,5.16
2023-04-22T15:11:33.897Z,5.02
2023-04-22T15:15:15.497Z,2.79
2023-04-22T15:18:57.159Z,6.34
2023-04-22T15:22:38.938Z,6.47
2023-04-22T15:26:20.738Z,5.67
2023-04-22T15:30:02.609Z,4.98
2023-04-22T15:33:44.325Z,6.25
2023-04-22T15:37:26.013Z,5.01
2023-04-22T15:41:07.901Z,4.92
2023-04-22T15:44:49.625Z,4.89
2023-04-22T15:48:31.262Z,2.22
2023-04-22T15:52:12.954Z,3.74
2023-04-22T15:55:54.740Z,5.29
2023-04-22T15:59:36.384Z,4.31
2023-04-22T16:03:18.207Z,2.71
2023-04-22T16:06:59.747Z,3.96
2023-04-22T16:10:41.397Z,3.28
2023-04-22T16:14:23.135Z,3.49
2023-04-22T16:18:04.920Z,2.93
2023-04-22T16:21:46.539Z,2.77
2023-04-22T16:25:28.310Z,4.32
2023-04-22T16:29:09.946Z,3.49
2023-04-22T16:32:51.654Z,3.53
2023-04-22T16:36:33.345Z,6.30
2023-04-22T16:40:15.063Z,4.37
2023-04-22T16:43:56.857Z,3.97
2023-04-22T16:47:40.575Z,4.00
2023-04-22T16:51:22.247Z,4.10
2023-04-22T16:55:03.977Z,4.15
2023-04-22T16:58:45.597Z,5.14
2023-04-22T17:02:27.369Z,3.72
2023-04-22T17:06:08.908Z,3.42
2023-04-22T17:09:50.596Z,5.10
2023-04-22T17:13:32.235Z,3.27
2023-04-22T17:17:13.840Z,2.38
2023-04-22T17:20:55.564Z,4.23
2023-04-22T17:24:37.167Z,2.83
2023-04-22T17:28:18.825Z,4.44
2023-04-22T17:32:00.521Z,4.43
2023-04-22T17:35:42.175Z,5.26
2023-04-22T17:43:03.925Z,4.32
2023-04-22T17:46:45.557Z,4.56
2023-04-22T17:50:27.167Z,4.46
2023-04-22T17:54:08.865Z,3.64
2023-04-22T17:57:50.458Z,2.29
2023-04-22T18:01:32.180Z,5.30
2023-04-22T18:05:14.815Z,3.52
2023-04-22T18:08:56.521Z,5.52
2023-04-22T18:12:38.293Z,4.26
2023-04-22T18:23:40.109Z,2.34
2023-04-22T18:27:21.712Z,2.53
2023-04-22T18:34:43.582Z,2.87
2023-04-22T18:42:05.128Z,2.61
2023-04-22T18:45:46.924Z,1.90
2023-04-22T18:49:28.568Z,2.48
2023-04-22T18:53:10.167Z,1.83
2023-04-22T19:00:31.871Z,2.61
2023-04-22T19:11:33.575Z,0.00
2023-04-22T19:22:35.578Z,0.00
2023-04-22T19:33:37.446Z,0.00
2023-04-22T19:44:39.407Z,0.00
2023-04-22T19:55:41.185Z,0.00
2023-04-22T19:59:22.936Z,2.29
2023-04-22T20:03:04.894Z,2.82
2023-04-22T20:06:46.261Z,2.48
2023-04-22T20:10:27.993Z,2.09
2023-04-22T20:14:09.636Z,2.32
2023-04-22T20:17:51.352Z,3.13
2023-04-22T20:21:32.987Z,3.83
2023-04-22T20:25:14.591Z,2.09
2023-04-22T20:28:56.307Z,3.25
2023-04-22T20:32:37.997Z,2.89
2023-04-22T20:43:39.758Z,0.00
2023-04-22T20:54:41.477Z,0.00
2023-04-22T21:05:45.941Z,0.00
2023-04-22T21:16:45.057Z,2.17
2023-04-22T21:27:46.784Z,0.00
2023-04-22T21:38:48.554Z,0.00
2023-04-22T21:49:50.421Z,0.00
2023-04-22T22:00:52.293Z,0.00
2023-04-22T22:11:54.138Z,0.00
2023-04-22T22:22:55.956Z,0.00
2023-04-22T22:33:57.869Z,0.00
2023-04-22T22:44:59.625Z,0.00
2023-04-22T22:56:01.398Z,0.00
2023-04-22T22:59:43.013Z,2.20
2023-04-22T23:10:44.745Z,0.00
2023-04-22T23:21:46.561Z,0.00
2023-04-22T23:32:48.291Z,0.00
2023-04-22T23:43:50.069Z,0.00
2023-04-22T23:54:51.818Z,0.00
